createdAt,value
2018-02-20T00:02:19.836Z,1.20
2018-02-20T00:04:47.280Z,1.20
2018-02-20T00:07:14.745Z,1.30
2018-02-20T00:09:42.212Z,1.30
2018-02-20T00:12:09.670Z,1.30
2018-02-20T00:14:37.145Z,1.40
2018-02-20T00:17:04.610Z,1.40
2018-02-20T00:19:32.063Z,1.40
2018-02-20T00:21:59.520Z,1.30
2018-02-20T00:24:26.976Z,1.20
2018-02-20T00:26:54.437Z,1.30
2018-02-20T00:29:21.889Z,1.40
2018-02-20T00:31:49.353Z,1.30
2018-02-20T00:34:16.805Z,1.30
2018-02-20T00:36:44.265Z,1.20
2018-02-20T00:39:11.726Z,1.30
2018-02-20T00:41:39.179Z,1.20
2018-02-20T00:44:06.635Z,1.30
2018-02-20T00:46:34.102Z,1.30
2018-02-20T00:49:01.549Z,1.20
2018-02-20T00:51:29.780Z,1.20
2018-02-20T00:53:57.229Z,1.20
2018-02-20T00:56:24.691Z,1.30
2018-02-20T00:58:52.977Z,1.20
2018-02-20T01:01:20.428Z,1.20
2018-02-20T01:03:47.881Z,1.20
2018-02-20T01:06:15.368Z,1.20
2018-02-20T01:08:42.813Z,1.20
2018-02-20T01:11:10.275Z,1.20
2018-02-20T01:13:37.737Z,1.20
2018-02-20T01:16:05.202Z,1.20
2018-02-20T01:18:32.657Z,1.20
2018-02-20T01:21:00.125Z,1.00
2018-02-20T01:23:27.583Z,1.00
2018-02-20T01:25:55.041Z,1.30
2018-02-20T01:28:22.493Z,1.00
2018-02-20T01:30:49.954Z,1.10
2018-02-20T01:33:17.408Z,1.00
2018-02-20T01:35:44.874Z,1.00
2018-02-20T01:38:13.090Z,1.20
2018-02-20T01:40:40.533Z,1.20
2018-02-20T01:43:08.016Z,1.20
2018-02-20T01:45:35.502Z,1.10
2018-02-20T01:48:02.978Z,1.20
2018-02-20T01:50:30.413Z,1.10
2018-02-20T01:52:57.876Z,1.10
2018-02-20T01:55:25.324Z,1.00
2018-02-20T01:57:52.789Z,0.90
2018-02-20T02:00:20.249Z,0.90
2018-02-20T02:02:47.713Z,1.00
2018-02-20T02:05:15.182Z,0.90
2018-02-20T02:07:42.653Z,1.10
2018-02-20T02:10:10.870Z,1.30
2018-02-20T02:12:39.092Z,1.30
2018-02-20T02:15:06.551Z,1.20
2018-02-20T02:17:34.014Z,1.20
2018-02-20T02:20:01.467Z,1.10
2018-02-20T02:22:28.949Z,1.10
2018-02-20T02:24:56.408Z,1.20
2018-02-20T02:27:23.868Z,1.30
2018-02-20T02:29:51.314Z,1.40
2018-02-20T02:32:18.775Z,1.40
2018-02-20T02:34:47.376Z,1.40
2018-02-20T02:37:14.840Z,1.50
2018-02-20T02:39:42.298Z,1.30
2018-02-20T02:42:09.764Z,1.30
2018-02-20T02:44:37.209Z,1.40
2018-02-20T02:47:04.662Z,1.30
2018-02-20T02:49:32.113Z,1.30
2018-02-20T02:52:00.336Z,1.30
2018-02-20T02:54:27.782Z,1.20
2018-02-20T02:56:55.236Z,1.10
2018-02-20T02:59:22.687Z,1.10
2018-02-20T03:01:50.164Z,1.00
2018-02-20T03:04:17.609Z,1.10
2018-02-20T03:06:45.066Z,1.10
2018-02-20T03:09:12.517Z,1.00
2018-02-20T03:11:39.968Z,1.10
2018-02-20T03:14:08.189Z,1.00
2018-02-20T03:16:35.653Z,1.00
2018-02-20T03:19:03.128Z,1.20
2018-02-20T03:21:31.344Z,1.10
2018-02-20T03:23:59.575Z,1.10
2018-02-20T03:26:27.030Z,1.10
2018-02-20T03:28:54.485Z,1.20
2018-02-20T03:31:21.938Z,1.30
2018-02-20T03:33:49.408Z,1.10
2018-02-20T03:36:16.856Z,1.00
2018-02-20T03:38:44.312Z,1.00
2018-02-20T03:41:11.782Z,1.00
2018-02-20T03:43:39.236Z,1.10
2018-02-20T03:46:06.686Z,1.20
2018-02-20T03:48:34.913Z,1.10
2018-02-20T03:51:02.366Z,1.10
2018-02-20T03:53:29.820Z,1.20
2018-02-20T03:55:57.279Z,1.10
2018-02-20T03:58:24.740Z,1.10
2018-02-20T04:00:52.188Z,1.00
2018-02-20T04:03:19.657Z,1.20
2018-02-20T04:05:47.105Z,1.20
2018-02-20T04:08:15.328Z,1.20
2018-02-20T04:10:42.776Z,1.20
2018-02-20T04:13:10.248Z,1.10
2018-02-20T04:15:37.699Z,1.00
2018-02-20T04:18:05.158Z,0.80
2018-02-20T04:20:32.610Z,0.70
2018-02-20T04:23:00.074Z,0.70
2018-02-20T04:25:27.521Z,0.80
2018-02-20T04:27:55.732Z,0.90
2018-02-20T04:30:23.184Z,0.90
2018-02-20T04:32:50.648Z,0.80
2018-02-20T04:35:18.120Z,0.90
2018-02-20T04:37:45.553Z,1.00
2018-02-20T04:40:13.776Z,1.00
2018-02-20T04:42:41.239Z,1.00
2018-02-20T04:45:08.692Z,0.90
2018-02-20T04:47:36.153Z,1.00
2018-02-20T04:50:03.617Z,0.90
2018-02-20T04:52:31.069Z,1.00
2018-02-20T04:54:58.524Z,0.80
2018-02-20T04:57:25.983Z,0.80
2018-02-20T04:59:53.447Z,0.70
2018-02-20T05:02:20.895Z,0.80
2018-02-20T05:04:48.365Z,0.90
2018-02-20T05:07:15.808Z,0.70
2018-02-20T05:09:44.049Z,0.50
2018-02-20T05:12:11.505Z,0.50
2018-02-20T05:14:38.965Z,0.50
2018-02-20T05:17:06.425Z,0.70
2018-02-20T05:19:33.910Z,0.70
2018-02-20T05:22:01.351Z,0.70
2018-02-20T05:24:28.814Z,0.60
2018-02-20T05:26:56.256Z,0.60
2018-02-20T05:29:23.712Z,0.70
2018-02-20T05:31:51.160Z,0.80
2018-02-20T05:34:18.616Z,0.70
2018-02-20T05:36:46.849Z,0.70
2018-02-20T05:39:14.320Z,0.70
2018-02-20T05:41:41.784Z,0.70
2018-02-20T05:44:09.233Z,0.80
2018-02-20T05:46:36.688Z,0.80
2018-02-20T05:49:04.141Z,0.70
2018-02-20T05:51:31.607Z,0.60
2018-02-20T05:53:59.057Z,0.50
2018-02-20T05:56:26.521Z,0.50
2018-02-20T05:58:53.988Z,0.50
2018-02-20T06:01:21.446Z,0.50
2018-02-20T06:03:48.908Z,0.50
2018-02-20T06:06:16.377Z,0.40
2018-02-20T06:08:43.824Z,0.20
2018-02-20T06:11:11.293Z,0.30
2018-02-20T06:13:38.752Z,0.40
2018-02-20T06:16:06.203Z,0.30
2018-02-20T06:18:33.653Z,0.30
2018-02-20T06:21:01.882Z,0.30
2018-02-20T06:23:29.338Z,0.30
2018-02-20T06:25:56.783Z,0.40
2018-02-20T06:28:24.241Z,0.40
2018-02-20T06:30:51.692Z,0.20
2018-02-20T06:33:19.145Z,0.30
2018-02-20T06:35:47.369Z,0.20
2018-02-20T06:38:14.820Z,0.10
2018-02-20T06:40:42.274Z,0.10
2018-02-20T06:43:09.726Z,0.20
2018-02-20T06:45:37.180Z,0.40
2018-02-20T06:48:05.392Z,0.50
2018-02-20T06:50:32.848Z,0.50
2018-02-20T06:53:00.297Z,0.50
2018-02-20T06:55:27.760Z,0.30
2018-02-20T06:57:55.208Z,0.20
2018-02-20T07:00:22.674Z,0.30
2018-02-20T07:02:50.257Z,0.60
2018-02-20T07:05:17.637Z,0.70
2018-02-20T07:07:45.089Z,0.70
2018-02-20T07:10:12.541Z,0.60
2018-02-20T07:12:39.990Z,0.70
2018-02-20T07:15:07.447Z,0.80
2018-02-20T07:17:35.690Z,0.60
2018-02-20T07:20:03.126Z,0.60
2018-02-20T07:22:30.589Z,0.60
2018-02-20T07:24:58.052Z,0.10
2018-02-20T07:27:25.488Z,0.10
2018-02-20T07:29:52.948Z,0.20
2018-02-20T07:32:20.407Z,0.30
2018-02-20T07:34:47.849Z,0.10
2018-02-20T07:37:16.065Z,0.40
2018-02-20T07:39:43.516Z,0.40
2018-02-20T07:42:10.969Z,0.60
2018-02-20T07:44:38.416Z,0.70
2018-02-20T07:47:06.649Z,0.60
2018-02-20T07:49:34.099Z,0.60
2018-02-20T07:52:01.559Z,0.60
2018-02-20T07:54:29.013Z,0.70
2018-02-20T07:56:56.483Z,0.80
2018-02-20T07:59:23.924Z,0.80
2018-02-20T08:01:51.388Z,0.80
2018-02-20T08:04:18.837Z,0.70
2018-02-20T08:06:47.062Z,0.70
2018-02-20T08:09:14.520Z,0.70
2018-02-20T08:11:41.987Z,0.70
2018-02-20T08:14:09.444Z,0.80
2018-02-20T08:16:36.913Z,0.90
2018-02-20T08:19:04.370Z,0.80
2018-02-20T08:21:31.820Z,0.70
2018-02-20T08:23:59.272Z,0.70
2018-02-20T08:26:26.745Z,0.90
2018-02-20T08:28:54.190Z,0.80
2018-02-20T08:31:21.652Z,0.80
2018-02-20T08:33:49.105Z,0.90
2018-02-20T08:36:17.322Z,0.80
2018-02-20T08:38:44.788Z,0.80
2018-02-20T08:41:12.273Z,0.90
2018-02-20T08:43:39.716Z,1.10
2018-02-20T08:46:07.177Z,1.10
2018-02-20T08:48:35.397Z,0.90
2018-02-20T08:51:02.844Z,0.90
2018-02-20T08:53:30.297Z,0.80
2018-02-20T08:55:57.757Z,0.80
2018-02-20T08:58:25.217Z,0.70
2018-02-20T09:00:52.680Z,0.70
2018-02-20T09:03:20.135Z,0.80
2018-02-20T09:05:47.597Z,0.90
2018-02-20T09:08:15.057Z,1.00
2018-02-20T09:10:42.512Z,1.00
2018-02-20T09:13:09.960Z,1.00
2018-02-20T09:15:37.420Z,1.10
2018-02-20T09:18:04.880Z,1.10
2018-02-20T09:20:32.336Z,1.10
2018-02-20T09:22:59.790Z,1.00
2018-02-20T09:25:27.242Z,1.10
2018-02-20T09:27:55.469Z,1.20
2018-02-20T09:30:22.932Z,1.10
2018-02-20T09:32:50.393Z,1.10
2018-02-20T09:35:17.840Z,1.00
2018-02-20T09:37:45.304Z,1.00
2018-02-20T09:40:12.753Z,1.20
2018-02-20T09:42:40.222Z,1.40
2018-02-20T09:45:07.676Z,1.30
2018-02-20T09:47:35.142Z,1.30
2018-02-20T09:50:02.592Z,1.20
2018-02-20T09:52:30.061Z,1.10
2018-02-20T09:54:57.507Z,1.30
2018-02-20T09:57:25.737Z,1.50
2018-02-20T09:59:53.184Z,1.50
2018-02-20T10:02:20.663Z,1.50
2018-02-20T10:04:48.107Z,1.60
2018-02-20T10:07:15.574Z,1.50
2018-02-20T10:09:43.035Z,1.40
2018-02-20T10:12:10.484Z,1.30
2018-02-20T10:14:37.940Z,1.50
2018-02-20T10:17:05.405Z,1.60
2018-02-20T10:19:32.857Z,1.50
2018-02-20T10:22:00.326Z,1.50
2018-02-20T10:24:27.772Z,1.50
2018-02-20T10:26:55.990Z,1.40
2018-02-20T10:29:23.445Z,1.40
2018-02-20T10:31:50.905Z,1.60
2018-02-20T10:34:18.365Z,1.60
2018-02-20T10:36:45.810Z,1.60
2018-02-20T10:39:13.262Z,1.60
2018-02-20T10:41:41.468Z,1.60
2018-02-20T10:44:08.919Z,1.60
2018-02-20T10:46:36.389Z,1.60
2018-02-20T10:49:03.896Z,1.50
2018-02-20T10:51:31.319Z,1.70
2018-02-20T10:53:58.777Z,1.70
2018-02-20T10:56:26.220Z,1.80
2018-02-20T10:58:53.673Z,1.70
2018-02-20T11:01:21.889Z,1.60
2018-02-20T11:03:49.352Z,1.60
2018-02-20T11:06:16.808Z,1.70
2018-02-20T11:08:44.265Z,1.80
2018-02-20T11:11:11.728Z,1.80
2018-02-20T11:13:39.190Z,1.70
2018-02-20T11:16:06.649Z,1.80
2018-02-20T11:18:34.114Z,1.70
2018-02-20T11:21:01.557Z,1.80
2018-02-20T11:23:29.779Z,1.80
2018-02-20T11:25:57.241Z,1.80
2018-02-20T11:28:24.703Z,1.80
2018-02-20T11:30:52.187Z,1.80
2018-02-20T11:33:19.605Z,1.90
2018-02-20T11:35:47.053Z,2.10
2018-02-20T11:40:49.156Z,2.10
2018-02-20T11:43:16.624Z,2.10
2018-02-20T11:45:44.080Z,2.20
2018-02-20T11:48:11.545Z,2.10
2018-02-20T11:50:38.993Z,2.20
2018-02-20T11:53:06.469Z,2.20
2018-02-20T11:55:33.925Z,2.20
2018-02-20T11:58:01.392Z,2.30
2018-02-20T12:00:28.853Z,2.00
2018-02-20T12:02:56.316Z,2.20
2018-02-20T12:05:23.782Z,2.20
2018-02-20T12:07:51.265Z,2.50
2018-02-20T12:10:18.755Z,2.40
2018-02-20T12:12:46.208Z,2.40
2018-02-20T12:15:13.663Z,2.40
2018-02-20T12:17:41.122Z,2.40
2018-02-20T12:20:08.576Z,2.40
2018-02-20T12:22:36.060Z,2.80
2018-02-20T12:25:03.636Z,2.80
2018-02-20T12:27:30.958Z,2.80
2018-02-20T12:29:58.419Z,2.60
2018-02-20T12:32:25.880Z,2.50
2018-02-20T12:34:53.335Z,2.50
2018-02-20T12:37:20.790Z,2.40
2018-02-20T12:39:48.889Z,2.60
2018-02-20T12:42:16.357Z,2.70
2018-02-20T12:44:43.828Z,2.70
2018-02-20T12:47:11.276Z,2.70
2018-02-20T12:49:38.749Z,2.60
2018-02-20T12:52:06.206Z,2.70
2018-02-20T12:54:33.670Z,2.90
2018-02-20T12:57:01.896Z,2.90
2018-02-20T12:59:30.124Z,2.90
2018-02-20T13:01:57.574Z,2.90
2018-02-20T13:04:25.029Z,2.80
2018-02-20T13:06:52.489Z,2.80
2018-02-20T13:09:19.949Z,2.70
2018-02-20T13:11:47.401Z,2.80
2018-02-20T13:14:14.861Z,2.70
2018-02-20T13:16:43.084Z,3.00
2018-02-20T13:19:10.553Z,3.00
2018-02-20T13:21:38.010Z,2.90
2018-02-20T13:24:05.464Z,2.80
2018-02-20T13:26:32.916Z,3.00
2018-02-20T13:29:00.379Z,2.60
2018-02-20T13:31:27.832Z,2.50
2018-02-20T13:33:55.293Z,2.60
2018-02-20T13:36:22.741Z,2.90
2018-02-20T13:38:51.012Z,2.80
2018-02-20T13:41:19.240Z,2.90
2018-02-20T13:43:46.701Z,2.90
2018-02-20T13:46:14.151Z,3.00
2018-02-20T13:48:41.635Z,3.00
2018-02-20T13:51:09.084Z,3.20
2018-02-20T13:53:36.552Z,3.10
2018-02-20T13:56:04.018Z,3.10
2018-02-20T13:58:31.477Z,3.20
2018-02-20T14:00:58.929Z,2.90
2018-02-20T14:03:26.379Z,2.90
2018-02-20T14:05:53.840Z,2.90
2018-02-20T14:08:21.295Z,2.90
2018-02-20T14:10:48.762Z,2.90
2018-02-20T14:13:16.226Z,3.00
2018-02-20T14:15:43.684Z,2.80
2018-02-20T14:18:11.132Z,2.70
2018-02-20T14:20:38.593Z,3.00
2018-02-20T14:23:06.805Z,3.00
2018-02-20T14:25:34.259Z,3.00
2018-02-20T14:28:01.718Z,3.00
2018-02-20T14:30:29.180Z,3.00
2018-02-20T14:32:56.625Z,3.20
2018-02-20T14:35:24.086Z,3.20
2018-02-20T14:37:52.292Z,3.10
2018-02-20T14:40:19.757Z,3.00
2018-02-20T14:42:47.216Z,3.10
2018-02-20T14:45:14.680Z,3.00
2018-02-20T14:47:42.133Z,2.80
2018-02-20T14:50:09.590Z,3.00
2018-02-20T14:52:37.037Z,3.20
2018-02-20T14:55:05.256Z,3.00
2018-02-20T14:57:32.712Z,3.00
2018-02-20T15:00:00.184Z,2.90
2018-02-20T15:02:28.444Z,3.00
2018-02-20T15:04:55.905Z,3.00
2018-02-20T15:07:23.364Z,3.10
2018-02-20T15:09:50.927Z,3.00
2018-02-20T15:12:18.368Z,3.20
2018-02-20T15:14:46.593Z,3.10
2018-02-20T15:17:14.046Z,3.00
2018-02-20T15:19:41.512Z,3.10
2018-02-20T15:22:08.956Z,3.50
2018-02-20T15:24:36.418Z,3.40
2018-02-20T15:27:03.889Z,3.30
2018-02-20T15:29:31.347Z,3.20
2018-02-20T15:31:58.820Z,3.20
2018-02-20T15:34:26.293Z,3.00
2018-02-20T15:36:53.753Z,3.00
2018-02-20T15:39:21.212Z,3.00
2018-02-20T15:41:48.678Z,3.00
2018-02-20T15:44:16.125Z,3.10
2018-02-20T15:46:43.592Z,2.90
2018-02-20T15:49:11.041Z,2.90
2018-02-20T15:54:12.522Z,3.20
2018-02-20T15:56:39.990Z,3.10
2018-02-20T15:59:07.429Z,2.90
2018-02-20T16:01:34.893Z,2.90
2018-02-20T16:04:02.346Z,3.10
2018-02-20T16:06:30.567Z,3.10
2018-02-20T16:08:58.017Z,3.10
2018-02-20T16:11:25.473Z,3.10
2018-02-20T16:13:53.473Z,3.10
2018-02-20T16:16:20.945Z,2.90
2018-02-20T16:18:48.410Z,2.90
2018-02-20T16:21:15.866Z,3.00
2018-02-20T16:23:45.276Z,3.00
2018-02-20T16:26:12.741Z,2.80
2018-02-20T16:28:40.186Z,3.10
2018-02-20T16:31:07.652Z,3.00
2018-02-20T16:33:35.872Z,2.80
2018-02-20T16:36:03.329Z,2.80
2018-02-20T16:38:30.823Z,2.70
2018-02-20T16:40:59.032Z,2.70
2018-02-20T16:43:26.484Z,2.70
2018-02-20T16:45:53.938Z,2.60
2018-02-20T16:48:21.395Z,2.60
2018-02-20T16:50:48.859Z,2.80
2018-02-20T16:53:16.323Z,2.90
2018-02-20T16:55:43.789Z,2.80
2018-02-20T16:58:11.240Z,2.90
2018-02-20T17:00:38.695Z,2.90
2018-02-20T17:03:06.157Z,2.80
2018-02-20T17:05:33.613Z,2.70
2018-02-20T17:08:01.066Z,2.80
2018-02-20T17:10:29.290Z,2.50
2018-02-20T17:12:56.745Z,2.50
2018-02-20T17:15:24.272Z,2.50
2018-02-20T17:17:52.493Z,2.50
2018-02-20T17:20:19.959Z,2.50
2018-02-20T17:22:47.407Z,2.50
2018-02-20T17:25:14.872Z,2.70
2018-02-20T17:27:42.330Z,2.60
2018-02-20T17:30:09.778Z,2.60
2018-02-20T17:32:37.234Z,2.50
2018-02-20T17:35:05.464Z,2.50
2018-02-20T17:37:32.918Z,2.50
2018-02-20T17:40:00.381Z,2.40
2018-02-20T17:42:27.850Z,2.40
2018-02-20T17:44:55.297Z,2.30
2018-02-20T17:47:22.765Z,2.40
2018-02-20T17:49:50.221Z,2.40
2018-02-20T17:52:17.708Z,2.30
2018-02-20T17:54:45.163Z,2.40
2018-02-20T17:57:12.616Z,2.30
2018-02-20T17:59:40.088Z,2.30
2018-02-20T18:02:07.557Z,2.30
2018-02-20T18:04:35.013Z,2.30
2018-02-20T18:07:02.469Z,2.30
2018-02-20T18:09:29.928Z,2.30
2018-02-20T18:11:57.389Z,2.40
2018-02-20T18:14:24.865Z,2.30
2018-02-20T18:16:52.325Z,2.30
2018-02-20T18:19:19.778Z,2.40
2018-02-20T18:21:47.240Z,2.30
2018-02-20T18:24:14.705Z,2.30
2018-02-20T18:26:42.168Z,2.30
2018-02-20T18:29:09.637Z,2.20
2018-02-20T18:31:37.093Z,2.20
2018-02-20T18:34:04.592Z,2.20
2018-02-20T18:36:32.061Z,2.20
2018-02-20T18:38:59.513Z,2.20
2018-02-20T18:41:26.981Z,2.20
2018-02-20T18:43:54.429Z,2.20
2018-02-20T18:46:22.644Z,2.20
2018-02-20T18:48:50.101Z,2.20
2018-02-20T18:51:18.317Z,2.10
2018-02-20T18:53:45.789Z,2.10
2018-02-20T18:56:13.243Z,2.10
2018-02-20T18:58:41.697Z,2.20
2018-02-20T19:01:09.149Z,2.20
2018-02-20T19:03:37.376Z,2.10
2018-02-20T19:06:04.820Z,2.10
2018-02-20T19:08:32.280Z,2.10
2018-02-20T19:11:00.635Z,2.10
2018-02-20T19:13:28.866Z,2.00
2018-02-20T19:15:56.325Z,2.00
2018-02-20T19:18:23.790Z,2.00
2018-02-20T19:20:51.240Z,2.00
2018-02-20T19:23:18.693Z,2.00
2018-02-20T19:25:46.148Z,2.10
2018-02-20T19:28:13.617Z,2.10
2018-02-20T19:30:41.068Z,2.10
2018-02-20T19:33:08.549Z,2.00
2018-02-20T19:35:36.003Z,2.00
2018-02-20T19:38:03.448Z,2.00
2018-02-20T19:40:30.900Z,2.00
2018-02-20T19:42:59.129Z,2.00
2018-02-20T19:45:26.585Z,2.00
2018-02-20T19:47:54.032Z,2.00
2018-02-20T19:50:21.489Z,2.20
2018-02-20T19:52:48.954Z,2.10
2018-02-20T19:55:16.403Z,2.10
2018-02-20T19:57:43.853Z,2.00
2018-02-20T20:00:12.079Z,2.00
2018-02-20T20:02:39.540Z,2.00
2018-02-20T20:05:06.994Z,2.10
2018-02-20T20:07:34.445Z,2.10
2018-02-20T20:10:01.904Z,2.20
2018-02-20T20:12:29.367Z,2.20
2018-02-20T20:14:56.821Z,2.20
2018-02-20T20:17:24.272Z,2.20
2018-02-20T20:19:52.489Z,2.40
2018-02-20T20:22:19.949Z,2.40
2018-02-20T20:24:47.401Z,2.30
2018-02-20T20:27:14.856Z,2.50
2018-02-20T20:29:42.308Z,2.30
2018-02-20T20:32:09.756Z,2.10
2018-02-20T20:34:37.980Z,2.30
2018-02-20T20:37:05.429Z,2.30
2018-02-20T20:39:32.888Z,2.10
2018-02-20T20:42:00.338Z,2.00
2018-02-20T20:44:27.792Z,1.90
2018-02-20T20:46:56.004Z,1.90
2018-02-20T20:49:23.462Z,1.90
2018-02-20T20:51:50.921Z,2.10
2018-02-20T20:54:18.378Z,2.00
2018-02-20T20:56:45.824Z,2.00
2018-02-20T20:59:13.300Z,2.00
2018-02-20T21:01:40.743Z,2.00
2018-02-20T21:04:08.969Z,1.90
2018-02-20T21:06:37.189Z,1.80
2018-02-20T21:09:05.417Z,1.80
2018-02-20T21:11:32.865Z,1.80
2018-02-20T21:14:00.329Z,1.90
2018-02-20T21:16:27.791Z,2.00
2018-02-20T21:18:55.253Z,2.10
2018-02-20T21:21:22.705Z,2.00
2018-02-20T21:23:50.153Z,1.90
2018-02-20T21:26:18.380Z,1.80
2018-02-20T21:28:46.623Z,1.80
2018-02-20T21:31:14.827Z,1.80
2018-02-20T21:33:42.285Z,1.70
2018-02-20T21:36:09.741Z,1.80
2018-02-20T21:38:37.200Z,1.90
2018-02-20T21:41:05.089Z,1.80
2018-02-20T21:43:32.556Z,1.70
2018-02-20T21:46:00.000Z,1.70
2018-02-20T21:48:27.462Z,1.80
2018-02-20T21:50:54.905Z,1.80
2018-02-20T21:53:23.133Z,1.70
2018-02-20T21:55:50.600Z,1.70
2018-02-20T21:58:18.056Z,1.70
2018-02-20T22:00:45.501Z,1.80
2018-02-20T22:03:12.970Z,1.80
2018-02-20T22:05:40.413Z,1.90
2018-02-20T22:08:07.866Z,1.80
2018-02-20T22:10:35.333Z,1.70
2018-02-20T22:13:02.779Z,1.80
2018-02-20T22:15:31.004Z,1.90
2018-02-20T22:17:58.464Z,1.90
2018-02-20T22:20:25.929Z,1.80
2018-02-20T22:22:53.397Z,1.70
2018-02-20T22:25:20.862Z,1.70
2018-02-20T22:27:48.324Z,1.80
2018-02-20T22:30:16.541Z,1.70
2018-02-20T22:32:44.770Z,1.70
2018-02-20T22:35:12.264Z,1.70
2018-02-20T22:37:39.715Z,1.70
2018-02-20T22:40:07.180Z,1.70
2018-02-20T22:42:34.628Z,1.70
2018-02-20T22:45:02.370Z,1.70
2018-02-20T22:47:29.845Z,1.90
2018-02-20T22:49:57.308Z,2.10
2018-02-20T22:52:24.759Z,1.90
2018-02-20T22:54:52.221Z,1.80
2018-02-20T22:57:19.672Z,1.70
2018-02-20T22:59:47.130Z,1.80
2018-02-20T23:02:15.357Z,1.90
2018-02-20T23:04:42.816Z,1.90
2018-02-20T23:07:10.273Z,1.70
2018-02-20T23:09:37.741Z,1.70
2018-02-20T23:12:05.201Z,1.80
2018-02-20T23:14:32.672Z,1.60
2018-02-20T23:17:00.124Z,1.50
2018-02-20T23:19:27.592Z,1.40
2018-02-20T23:21:55.048Z,1.40
2018-02-20T23:24:22.612Z,1.50
2018-02-20T23:26:50.063Z,1.60
2018-02-20T23:29:17.520Z,1.50
2018-02-20T23:31:45.733Z,1.20
2018-02-20T23:34:13.222Z,1.20
2018-02-20T23:36:40.671Z,1.40
2018-02-20T23:39:08.928Z,1.50
2018-02-20T23:41:36.376Z,1.50
2018-02-20T23:44:03.819Z,1.60
2018-02-20T23:46:32.050Z,1.40
2018-02-20T23:48:59.499Z,1.40
2018-02-20T23:51:32.619Z,1.40
2018-02-20T23:54:00.065Z,1.30
2018-02-20T23:56:27.586Z,1.20
2018-02-20T23:58:54.986Z,1.10
